sensor_id;sensor_type;location;lat;lon;timestamp;P1;durP1;ratioP1;P2;durP2;ratioP2
64186;SDS011;50491;39.484;-8.540;2022-07-23T00:01:17;7.22;;;2.10;;
64186;SDS011;50491;39.484;-8.540;2022-07-23T00:03:18;2.60;;;1.73;;
64186;SDS011;50491;39.484;-8.540;2022-07-23T00:05:19;7.18;;;2.45;;
64186;SDS011;50491;39.484;-8.540;2022-07-23T00:07:44;1.92;;;1.50;;
64186;SDS011;50491;39.484;-8.540;2022-07-23T00:10:04;1.33;;;1.20;;
64186;SDS011;50491;39.484;-8.540;2022-07-23T00:14:24;4.10;;;1.98;;
64186;SDS011;50491;39.484;-8.540;2022-07-23T00:18:44;1.90;;;1.70;;
64186;SDS011;50491;39.484;-8.540;2022-07-23T00:21:09;9.75;;;2.40;;
64186;SDS011;50491;39.484;-8.540;2022-07-23T00:23:28;3.92;;;1.83;;
64186;SDS011;50491;39.484;-8.540;2022-07-23T00:25:49;3.92;;;1.70;;
64186;SDS011;50491;39.484;-8.540;2022-07-23T00:28:05;3.10;;;1.75;;
64186;SDS011;50491;39.484;-8.540;2022-07-23T00:30:06;3.60;;;1.85;;
64186;SDS011;50491;39.484;-8.540;2022-07-23T00:37:22;2.08;;;1.40;;
64186;SDS011;50491;39.484;-8.540;2022-07-23T00:39:23;8.40;;;2.10;;
64186;SDS011;50491;39.484;-8.540;2022-07-23T00:41:24;2.40;;;1.67;;
64186;SDS011;50491;39.484;-8.540;2022-07-23T00:43:25;8.23;;;2.10;;
64186;SDS011;50491;39.484;-8.540;2022-07-23T00:45:26;4.47;;;2.30;;
64186;SDS011;50491;39.484;-8.540;2022-07-23T00:47:27;2.70;;;2.05;;
64186;SDS011;50491;39.484;-8.540;2022-07-23T00:49:46;3.28;;;2.40;;
64186;SDS011;50491;39.484;-8.540;2022-07-23T00:52:06;7.55;;;2.38;;
64186;SDS011;50491;39.484;-8.540;2022-07-23T00:54:06;3.83;;;2.22;;
64186;SDS011;50491;39.484;-8.540;2022-07-23T00:56:07;6.85;;;2.03;;
64186;SDS011;50491;39.484;-8.540;2022-07-23T00:58:08;3.97;;;3.00;;
64186;SDS011;50491;39.484;-8.540;2022-07-23T01:00:11;6.03;;;2.05;;
64186;SDS011;50491;39.484;-8.540;2022-07-23T01:02:13;5.82;;;2.67;;
64186;SDS011;50491;39.484;-8.540;2022-07-23T01:04:13;4.32;;;2.38;;
64186;SDS011;50491;39.484;-8.540;2022-07-23T01:06:15;5.45;;;2.78;;
64186;SDS011;50491;39.484;-8.540;2022-07-23T01:10:35;3.22;;;2.58;;
64186;SDS011;50491;39.484;-8.540;2022-07-23T01:13:13;6.68;;;2.33;;
64186;SDS011;50491;39.484;-8.540;2022-07-23T01:22:11;6.53;;;3.08;;
64186;SDS011;50491;39.484;-8.540;2022-07-23T01:24:31;4.10;;;2.67;;
64186;SDS011;50491;39.484;-8.540;2022-07-23T01:26:35;3.78;;;1.95;;
64186;SDS011;50491;39.484;-8.540;2022-07-23T01:28:37;3.80;;;2.72;;
64186;SDS011;50491;39.484;-8.540;2022-07-23T01:30:38;4.60;;;2.58;;
64186;SDS011;50491;39.484;-8.540;2022-07-23T01:32:40;3.22;;;1.98;;
64186;SDS011;50491;39.484;-8.540;2022-07-23T01:34:41;2.55;;;2.30;;
64186;SDS011;50491;39.484;-8.540;2022-07-23T01:36:43;2.67;;;1.92;;
64186;SDS011;50491;39.484;-8.540;2022-07-23T01:39:03;2.75;;;2.30;;
64186;SDS011;50491;39.484;-8.540;2022-07-23T01:41:04;3.35;;;2.53;;
64186;SDS011;50491;39.484;-8.540;2022-07-23T01:43:23;3.38;;;2.13;;
64186;SDS011;50491;39.484;-8.540;2022-07-23T01:45:43;2.30;;;1.85;;
64186;SDS011;50491;39.484;-8.540;2022-07-23T01:47:45;3.47;;;2.63;;
64186;SDS011;50491;39.484;-8.540;2022-07-23T01:49:47;4.70;;;2.58;;
64186;SDS011;50491;39.484;-8.540;2022-07-23T01:54:44;2.92;;;2.40;;
64186;SDS011;50491;39.484;-8.540;2022-07-23T02:04:05;5.68;;;2.42;;
64186;SDS011;50491;39.484;-8.540;2022-07-23T02:06:25;5.25;;;3.28;;
64186;SDS011;50491;39.484;-8.540;2022-07-23T02:08:25;4.63;;;3.10;;
64186;SDS011;50491;39.484;-8.540;2022-07-23T02:10:26;5.47;;;2.65;;
64186;SDS011;50491;39.484;-8.540;2022-07-23T02:12:29;3.78;;;2.55;;
64186;SDS011;50491;39.484;-8.540;2022-07-23T02:14:29;5.15;;;2.33;;
64186;SDS011;50491;39.484;-8.540;2022-07-23T02:16:30;4.95;;;2.90;;
64186;SDS011;50491;39.484;-8.540;2022-07-23T02:18:35;4.45;;;2.38;;
64186;SDS011;50491;39.484;-8.540;2022-07-23T02:20:55;6.82;;;2.75;;
64186;SDS011;50491;39.484;-8.540;2022-07-23T02:22:55;4.07;;;2.35;;
64186;SDS011;50491;39.484;-8.540;2022-07-23T02:24:56;7.25;;;2.83;;
64186;SDS011;50491;39.484;-8.540;2022-07-23T02:27:15;5.05;;;2.63;;
64186;SDS011;50491;39.484;-8.540;2022-07-23T02:29:34;11.00;;;2.80;;
64186;SDS011;50491;39.484;-8.540;2022-07-23T02:31:36;5.03;;;2.30;;
64186;SDS011;50491;39.484;-8.540;2022-07-23T02:33:36;4.88;;;1.90;;
64186;SDS011;50491;39.484;-8.540;2022-07-23T02:35:37;3.92;;;2.88;;
64186;SDS011;50491;39.484;-8.540;2022-07-23T02:40:16;2.92;;;2.42;;
64186;SDS011;50491;39.484;-8.540;2022-07-23T02:44:37;3.03;;;2.20;;
64186;SDS011;50491;39.484;-8.540;2022-07-23T02:48:57;2.88;;;2.55;;
64186;SDS011;50491;39.484;-8.540;2022-07-23T02:54:13;6.45;;;3.28;;
64186;SDS011;50491;39.484;-8.540;2022-07-23T02:56:58;6.10;;;4.03;;
64186;SDS011;50491;39.484;-8.540;2022-07-23T03:01:38;6.75;;;2.92;;
64186;SDS011;50491;39.484;-8.540;2022-07-23T03:03:39;3.10;;;2.50;;
64186;SDS011;50491;39.484;-8.540;2022-07-23T03:05:40;7.75;;;2.75;;
64186;SDS011;50491;39.484;-8.540;2022-07-23T03:07:41;8.85;;;3.10;;
64186;SDS011;50491;39.484;-8.540;2022-07-23T03:10:25;4.00;;;2.30;;
64186;SDS011;50491;39.484;-8.540;2022-07-23T03:12:26;3.03;;;2.58;;
64186;SDS011;50491;39.484;-8.540;2022-07-23T03:14:27;9.02;;;3.28;;
64186;SDS011;50491;39.484;-8.540;2022-07-23T03:16:28;3.00;;;2.25;;
64186;SDS011;50491;39.484;-8.540;2022-07-23T03:18:47;5.28;;;2.85;;
64186;SDS011;50491;39.484;-8.540;2022-07-23T03:20:48;3.00;;;2.53;;
64186;SDS011;50491;39.484;-8.540;2022-07-23T03:22:49;4.22;;;2.88;;
64186;SDS011;50491;39.484;-8.540;2022-07-23T03:24:50;6.30;;;3.08;;
64186;SDS011;50491;39.484;-8.540;2022-07-23T03:26:56;5.10;;;3.03;;
64186;SDS011;50491;39.484;-8.540;2022-07-23T03:28:57;4.00;;;3.17;;
64186;SDS011;50491;39.484;-8.540;2022-07-23T03:31:16;11.57;;;3.22;;
64186;SDS011;50491;39.484;-8.540;2022-07-23T03:33:41;6.10;;;2.83;;
64186;SDS011;50491;39.484;-8.540;2022-07-23T03:36:01;5.78;;;2.85;;
64186;SDS011;50491;39.484;-8.540;2022-07-23T03:38:05;5.63;;;3.20;;
64186;SDS011;50491;39.484;-8.540;2022-07-23T03:40:07;10.40;;;3.10;;
64186;SDS011;50491;39.484;-8.540;2022-07-23T03:42:07;5.25;;;3.25;;
64186;SDS011;50491;39.484;-8.540;2022-07-23T03:44:08;2.28;;;1.88;;
64186;SDS011;50491;39.484;-8.540;2022-07-23T03:46:09;11.13;;;2.50;;
64186;SDS011;50491;39.484;-8.540;2022-07-23T03:48:28;4.88;;;3.45;;
64186;SDS011;50491;39.484;-8.540;2022-07-23T03:50:48;7.88;;;3.72;;
64186;SDS011;50491;39.484;-8.540;2022-07-23T03:52:49;5.63;;;2.67;;
64186;SDS011;50491;39.484;-8.540;2022-07-23T03:54:49;4.20;;;3.03;;
64186;SDS011;50491;39.484;-8.540;2022-07-23T03:56:50;5.53;;;3.05;;
64186;SDS011;50491;39.484;-8.540;2022-07-23T03:59:10;6.15;;;3.75;;
64186;SDS011;50491;39.484;-8.540;2022-07-23T04:01:26;5.65;;;3.38;;
64186;SDS011;50491;39.484;-8.540;2022-07-23T04:03:51;5.90;;;3.67;;
64186;SDS011;50491;39.484;-8.540;2022-07-23T04:05:52;5.85;;;3.50;;
64186;SDS011;50491;39.484;-8.540;2022-07-23T04:07:54;6.13;;;3.80;;
64186;SDS011;50491;39.484;-8.540;2022-07-23T04:10:13;8.23;;;2.78;;
64186;SDS011;50491;39.484;-8.540;2022-07-23T04:12:32;6.40;;;3.08;;
64186;SDS011;50491;39.484;-8.540;2022-07-23T04:14:33;7.47;;;4.03;;
64186;SDS011;50491;39.484;-8.540;2022-07-23T04:16:52;4.47;;;2.50;;
64186;SDS011;50491;39.484;-8.540;2022-07-23T04:19:11;6.72;;;3.55;;
64186;SDS011;50491;39.484;-8.540;2022-07-23T04:21:25;6.40;;;2.83;;
64186;SDS011;50491;39.484;-8.540;2022-07-23T04:23:45;6.97;;;3.65;;
64186;SDS011;50491;39.484;-8.540;2022-07-23T04:28:38;5.00;;;2.65;;
64186;SDS011;50491;39.484;-8.540;2022-07-23T04:30:58;8.38;;;3.70;;
64186;SDS011;50491;39.484;-8.540;2022-07-23T04:33:17;4.68;;;3.00;;
64186;SDS011;50491;39.484;-8.540;2022-07-23T04:37:47;5.07;;;3.17;;
64186;SDS011;50491;39.484;-8.540;2022-07-23T04:40:06;4.93;;;2.55;;
64186;SDS011;50491;39.484;-8.540;2022-07-23T04:42:07;5.07;;;2.92;;
64186;SDS011;50491;39.484;-8.540;2022-07-23T04:44:08;7.70;;;2.42;;
64186;SDS011;50491;39.484;-8.540;2022-07-23T04:51:07;3.55;;;2.58;;
64186;SDS011;50491;39.484;-8.540;2022-07-23T04:53:08;4.28;;;2.30;;
64186;SDS011;50491;39.484;-8.540;2022-07-23T04:55:28;3.75;;;2.72;;
64186;SDS011;50491;39.484;-8.540;2022-07-23T04:57:29;4.18;;;2.47;;
64186;SDS011;50491;39.484;-8.540;2022-07-23T04:59:29;3.38;;;3.03;;
64186;SDS011;50491;39.484;-8.540;2022-07-23T05:01:34;8.85;;;3.22;;
64186;SDS011;50491;39.484;-8.540;2022-07-23T05:03:35;2.45;;;2.17;;
64186;SDS011;50491;39.484;-8.540;2022-07-23T05:05:54;3.38;;;2.47;;
64186;SDS011;50491;39.484;-8.540;2022-07-23T05:08:14;13.43;;;3.58;;
64186;SDS011;50491;39.484;-8.540;2022-07-23T05:14:56;5.65;;;2.75;;
64186;SDS011;50491;39.484;-8.540;2022-07-23T05:17:15;6.43;;;2.97;;
64186;SDS011;50491;39.484;-8.540;2022-07-23T05:19:34;4.82;;;3.35;;
64186;SDS011;50491;39.484;-8.540;2022-07-23T05:21:36;3.72;;;2.58;;
64186;SDS011;50491;39.484;-8.540;2022-07-23T05:26:33;8.20;;;3.63;;
64186;SDS011;50491;39.484;-8.540;2022-07-23T05:30:54;18.80;;;3.10;;
64186;SDS011;50491;39.484;-8.540;2022-07-23T05:32:56;4.63;;;2.33;;
64186;SDS011;50491;39.484;-8.540;2022-07-23T05:35:15;4.00;;;2.83;;
64186;SDS011;50491;39.484;-8.540;2022-07-23T05:40:12;5.75;;;2.97;;
64186;SDS011;50491;39.484;-8.540;2022-07-23T05:42:13;10.55;;;5.22;;
64186;SDS011;50491;39.484;-8.540;2022-07-23T05:44:32;8.35;;;3.67;;
64186;SDS011;50491;39.484;-8.540;2022-07-23T05:46:33;3.95;;;2.83;;
64186;SDS011;50491;39.484;-8.540;2022-07-23T05:48:39;3.53;;;2.75;;
64186;SDS011;50491;39.484;-8.540;2022-07-23T05:51:22;7.78;;;3.55;;
64186;SDS011;50491;39.484;-8.540;2022-07-23T05:53:24;4.35;;;2.65;;
64186;SDS011;50491;39.484;-8.540;2022-07-23T05:56:02;4.15;;;3.00;;
64186;SDS011;50491;39.484;-8.540;2022-07-23T05:58:46;6.50;;;2.78;;
64186;SDS011;50491;39.484;-8.540;2022-07-23T06:00:49;3.22;;;2.58;;
64186;SDS011;50491;39.484;-8.540;2022-07-23T06:02:50;11.45;;;2.60;;
64186;SDS011;50491;39.484;-8.540;2022-07-23T06:04:51;3.97;;;3.10;;
64186;SDS011;50491;39.484;-8.540;2022-07-23T06:09:20;6.20;;;4.03;;
64186;SDS011;50491;39.484;-8.540;2022-07-23T06:11:40;13.55;;;4.32;;
64186;SDS011;50491;39.484;-8.540;2022-07-23T06:13:41;10.57;;;3.13;;
64186;SDS011;50491;39.484;-8.540;2022-07-23T06:15:41;4.43;;;2.90;;
64186;SDS011;50491;39.484;-8.540;2022-07-23T06:18:00;7.15;;;3.30;;
64186;SDS011;50491;39.484;-8.540;2022-07-23T06:20:01;4.40;;;2.72;;
64186;SDS011;50491;39.484;-8.540;2022-07-23T06:22:02;7.50;;;2.58;;
64186;SDS011;50491;39.484;-8.540;2022-07-23T06:24:03;2.53;;;2.05;;
64186;SDS011;50491;39.484;-8.540;2022-07-23T06:26:04;10.55;;;2.65;;
64186;SDS011;50491;39.484;-8.540;2022-07-23T06:28:05;5.75;;;3.05;;
64186;SDS011;50491;39.484;-8.540;2022-07-23T06:30:06;6.85;;;3.05;;
64186;SDS011;50491;39.484;-8.540;2022-07-23T06:34:28;4.50;;;2.15;;
64186;SDS011;50491;39.484;-8.540;2022-07-23T06:46:23;4.78;;;3.60;;
64186;SDS011;50491;39.484;-8.540;2022-07-23T06:48:43;5.40;;;3.45;;
64186;SDS011;50491;39.484;-8.540;2022-07-23T07:00:39;3.22;;;2.65;;
64186;SDS011;50491;39.484;-8.540;2022-07-23T07:03:17;5.07;;;3.35;;
64186;SDS011;50491;39.484;-8.540;2022-07-23T07:05:18;5.32;;;3.40;;
64186;SDS011;50491;39.484;-8.540;2022-07-23T07:07:19;4.32;;;2.40;;
64186;SDS011;50491;39.484;-8.540;2022-07-23T07:12:36;6.97;;;2.40;;
64186;SDS011;50491;39.484;-8.540;2022-07-23T07:14:37;3.85;;;2.35;;
64186;SDS011;50491;39.484;-8.540;2022-07-23T07:16:38;4.75;;;2.63;;
64186;SDS011;50491;39.484;-8.540;2022-07-23T07:18:39;8.15;;;3.45;;
64186;SDS011;50491;39.484;-8.540;2022-07-23T07:20:58;5.43;;;3.00;;
64186;SDS011;50491;39.484;-8.540;2022-07-23T07:22:59;6.38;;;3.45;;
64186;SDS011;50491;39.484;-8.540;2022-07-23T07:24:59;5.65;;;2.83;;
64186;SDS011;50491;39.484;-8.540;2022-07-23T07:27:00;3.90;;;2.45;;
64186;SDS011;50491;39.484;-8.540;2022-07-23T07:29:01;5.32;;;2.88;;
64186;SDS011;50491;39.484;-8.540;2022-07-23T07:31:02;6.25;;;3.10;;
64186;SDS011;50491;39.484;-8.540;2022-07-23T07:33:02;3.20;;;2.83;;
64186;SDS011;50491;39.484;-8.540;2022-07-23T07:35:03;8.02;;;2.97;;
64186;SDS011;50491;39.484;-8.540;2022-07-23T07:37:04;8.88;;;2.83;;
64186;SDS011;50491;39.484;-8.540;2022-07-23T07:39:30;6.30;;;2.80;;
64186;SDS011;50491;39.484;-8.540;2022-07-23T07:41:50;6.85;;;3.35;;
64186;SDS011;50491;39.484;-8.540;2022-07-23T07:43:51;2.53;;;2.28;;
64186;SDS011;50491;39.484;-8.540;2022-07-23T07:45:52;3.20;;;2.47;;
64186;SDS011;50491;39.484;-8.540;2022-07-23T07:53:09;4.68;;;3.38;;
64186;SDS011;50491;39.484;-8.540;2022-07-23T07:55:10;10.15;;;3.80;;
64186;SDS011;50491;39.484;-8.540;2022-07-23T07:57:30;3.35;;;3.05;;
64186;SDS011;50491;39.484;-8.540;2022-07-23T07:59:50;7.28;;;3.05;;
64186;SDS011;50491;39.484;-8.540;2022-07-23T08:02:08;4.88;;;2.88;;
64186;SDS011;50491;39.484;-8.540;2022-07-23T08:04:28;6.53;;;2.63;;
64186;SDS011;50491;39.484;-8.540;2022-07-23T08:06:29;5.20;;;3.00;;
64186;SDS011;50491;39.484;-8.540;2022-07-23T08:08:30;8.68;;;3.75;;
64186;SDS011;50491;39.484;-8.540;2022-07-23T08:10:31;4.53;;;2.90;;
64186;SDS011;50491;39.484;-8.540;2022-07-23T08:13:05;7.13;;;3.20;;
64186;SDS011;50491;39.484;-8.540;2022-07-23T08:15:00;3.47;;;2.38;;
64186;SDS011;50491;39.484;-8.540;2022-07-23T08:17:01;6.78;;;3.00;;
64186;SDS011;50491;39.484;-8.540;2022-07-23T08:19:27;5.07;;;2.03;;
64186;SDS011;50491;39.484;-8.540;2022-07-23T08:21:53;5.88;;;3.72;;
64186;SDS011;50491;39.484;-8.540;2022-07-23T08:24:13;3.42;;;2.47;;
64186;SDS011;50491;39.484;-8.540;2022-07-23T08:26:32;3.40;;;2.22;;
64186;SDS011;50491;39.484;-8.540;2022-07-23T08:28:33;2.50;;;2.30;;
64186;SDS011;50491;39.484;-8.540;2022-07-23T08:30:33;4.47;;;3.35;;
64186;SDS011;50491;39.484;-8.540;2022-07-23T08:32:48;3.70;;;2.75;;
64186;SDS011;50491;39.484;-8.540;2022-07-23T08:34:59;4.35;;;2.35;;
64186;SDS011;50491;39.484;-8.540;2022-07-23T08:37:00;4.13;;;2.65;;
64186;SDS011;50491;39.484;-8.540;2022-07-23T08:39:19;3.20;;;2.42;;
64186;SDS011;50491;39.484;-8.540;2022-07-23T08:41:39;6.38;;;3.03;;
64186;SDS011;50491;39.484;-8.540;2022-07-23T08:43:40;3.28;;;2.03;;
64186;SDS011;50491;39.484;-8.540;2022-07-23T08:45:41;17.10;;;2.95;;
64186;SDS011;50491;39.484;-8.540;2022-07-23T08:48:02;3.95;;;2.38;;
64186;SDS011;50491;39.484;-8.540;2022-07-23T08:50:03;4.85;;;2.13;;
64186;SDS011;50491;39.484;-8.540;2022-07-23T08:52:04;8.30;;;3.13;;
64186;SDS011;50491;39.484;-8.540;2022-07-23T08:54:05;2.83;;;2.28;;
64186;SDS011;50491;39.484;-8.540;2022-07-23T08:56:06;4.80;;;2.70;;
64186;SDS011;50491;39.484;-8.540;2022-07-23T09:00:27;7.60;;;3.40;;
64186;SDS011;50491;39.484;-8.540;2022-07-23T09:02:27;3.33;;;2.80;;
64186;SDS011;50491;39.484;-8.540;2022-07-23T09:04:28;8.50;;;3.97;;
64186;SDS011;50491;39.484;-8.540;2022-07-23T09:06:29;4.25;;;2.80;;
64186;SDS011;50491;39.484;-8.540;2022-07-23T09:09:16;7.75;;;2.38;;
64186;SDS011;50491;39.484;-8.540;2022-07-23T09:11:18;5.32;;;2.33;;
64186;SDS011;50491;39.484;-8.540;2022-07-23T09:13:47;8.63;;;4.35;;
64186;SDS011;50491;39.484;-8.540;2022-07-23T09:16:18;8.13;;;2.72;;
64186;SDS011;50491;39.484;-8.540;2022-07-23T09:18:30;6.55;;;3.50;;
64186;SDS011;50491;39.484;-8.540;2022-07-23T09:23:10;4.35;;;2.35;;
64186;SDS011;50491;39.484;-8.540;2022-07-23T09:25:14;4.47;;;2.30;;
64186;SDS011;50491;39.484;-8.540;2022-07-23T09:30:21;2.30;;;2.05;;
64186;SDS011;50491;39.484;-8.540;2022-07-23T09:32:23;4.88;;;3.05;;
64186;SDS011;50491;39.484;-8.540;2022-07-23T09:34:31;6.38;;;2.85;;
64186;SDS011;50491;39.484;-8.540;2022-07-23T09:37:12;3.42;;;2.47;;
64186;SDS011;50491;39.484;-8.540;2022-07-23T09:42:18;6.78;;;3.53;;
64186;SDS011;50491;39.484;-8.540;2022-07-23T09:44:20;3.65;;;2.25;;
64186;SDS011;50491;39.484;-8.540;2022-07-23T09:46:22;2.22;;;1.70;;
64186;SDS011;50491;39.484;-8.540;2022-07-23T09:51:02;4.95;;;2.88;;
64186;SDS011;50491;39.484;-8.540;2022-07-23T09:53:30;10.82;;;3.67;;
64186;SDS011;50491;39.484;-8.540;2022-07-23T09:56:22;4.00;;;2.88;;
64186;SDS011;50491;39.484;-8.540;2022-07-23T09:58:41;4.03;;;2.88;;
64186;SDS011;50491;39.484;-8.540;2022-07-23T10:00:47;2.63;;;2.33;;
64186;SDS011;50491;39.484;-8.540;2022-07-23T10:02:49;2.85;;;2.47;;
64186;SDS011;50491;39.484;-8.540;2022-07-23T10:05:02;7.45;;;3.53;;
64186;SDS011;50491;39.484;-8.540;2022-07-23T10:07:23;5.57;;;2.53;;
64186;SDS011;50491;39.484;-8.540;2022-07-23T10:09:45;7.00;;;2.70;;
64186;SDS011;50491;39.484;-8.540;2022-07-23T10:12:11;8.68;;;3.13;;
64186;SDS011;50491;39.484;-8.540;2022-07-23T10:14:35;8.85;;;3.35;;
64186;SDS011;50491;39.484;-8.540;2022-07-23T10:16:54;8.82;;;3.35;;
64186;SDS011;50491;39.484;-8.540;2022-07-23T10:18:55;2.97;;;2.30;;
64186;SDS011;50491;39.484;-8.540;2022-07-23T10:20:56;7.53;;;3.35;;
64186;SDS011;50491;39.484;-8.540;2022-07-23T10:23:00;6.80;;;3.00;;
64186;SDS011;50491;39.484;-8.540;2022-07-23T10:40:28;4.30;;;2.90;;
64186;SDS011;50491;39.484;-8.540;2022-07-23T10:42:33;6.55;;;2.30;;
64186;SDS011;50491;39.484;-8.540;2022-07-23T10:44:59;4.30;;;2.83;;
64186;SDS011;50491;39.484;-8.540;2022-07-23T10:47:28;13.43;;;3.30;;
64186;SDS011;50491;39.484;-8.540;2022-07-23T10:49:41;3.90;;;2.40;;
64186;SDS011;50491;39.484;-8.540;2022-07-23T10:52:14;4.40;;;2.70;;
64186;SDS011;50491;39.484;-8.540;2022-07-23T11:07:11;9.60;;;2.85;;
64186;SDS011;50491;39.484;-8.540;2022-07-23T11:09:28;7.60;;;3.10;;
64186;SDS011;50491;39.484;-8.540;2022-07-23T11:11:29;6.20;;;3.15;;
64186;SDS011;50491;39.484;-8.540;2022-07-23T11:13:31;3.70;;;2.53;;
64186;SDS011;50491;39.484;-8.540;2022-07-23T11:15:33;4.13;;;3.00;;
64186;SDS011;50491;39.484;-8.540;2022-07-23T11:18:03;3.55;;;2.17;;
64186;SDS011;50491;39.484;-8.540;2022-07-23T11:20:28;6.45;;;2.63;;
64186;SDS011;50491;39.484;-8.540;2022-07-23T11:24:54;5.97;;;2.50;;
64186;SDS011;50491;39.484;-8.540;2022-07-23T11:26:56;4.38;;;2.83;;
64186;SDS011;50491;39.484;-8.540;2022-07-23T11:37:07;5.70;;;2.40;;
64186;SDS011;50491;39.484;-8.540;2022-07-23T11:41:47;2.63;;;2.35;;
64186;SDS011;50491;39.484;-8.540;2022-07-23T11:44:23;4.38;;;2.53;;
64186;SDS011;50491;39.484;-8.540;2022-07-23T11:46:25;5.18;;;3.20;;
64186;SDS011;50491;39.484;-8.540;2022-07-23T11:48:26;7.85;;;3.38;;
64186;SDS011;50491;39.484;-8.540;2022-07-23T11:50:53;6.80;;;2.50;;
64186;SDS011;50491;39.484;-8.540;2022-07-23T11:55:47;4.15;;;2.45;;
64186;SDS011;50491;39.484;-8.540;2022-07-23T11:57:47;5.15;;;2.47;;
64186;SDS011;50491;39.484;-8.540;2022-07-23T11:59:51;12.13;;;3.08;;
64186;SDS011;50491;39.484;-8.540;2022-07-23T12:01:57;2.78;;;2.38;;
64186;SDS011;50491;39.484;-8.540;2022-07-23T12:03:59;5.60;;;2.35;;
64186;SDS011;50491;39.484;-8.540;2022-07-23T12:08:19;7.95;;;2.92;;
64186;SDS011;50491;39.484;-8.540;2022-07-23T12:10:43;5.18;;;2.70;;
64186;SDS011;50491;39.484;-8.540;2022-07-23T12:12:54;4.95;;;2.15;;
64186;SDS011;50491;39.484;-8.540;2022-07-23T12:15:23;6.32;;;2.30;;
64186;SDS011;50491;39.484;-8.540;2022-07-23T12:17:28;5.32;;;2.55;;
64186;SDS011;50491;39.484;-8.540;2022-07-23T12:19:48;6.53;;;2.38;;
64186;SDS011;50491;39.484;-8.540;2022-07-23T12:22:07;3.30;;;2.30;;
64186;SDS011;50491;39.484;-8.540;2022-07-23T12:34:25;4.85;;;2.38;;
64186;SDS011;50491;39.484;-8.540;2022-07-23T12:36:36;7.07;;;2.58;;
64186;SDS011;50491;39.484;-8.540;2022-07-23T12:38:55;5.32;;;2.53;;
64186;SDS011;50491;39.484;-8.540;2022-07-23T12:41:14;5.45;;;2.10;;
64186;SDS011;50491;39.484;-8.540;2022-07-23T12:43:28;3.20;;;2.15;;
64186;SDS011;50491;39.484;-8.540;2022-07-23T12:48:05;3.67;;;2.07;;
64186;SDS011;50491;39.484;-8.540;2022-07-23T12:50:07;4.68;;;2.60;;
64186;SDS011;50491;39.484;-8.540;2022-07-23T12:52:16;3.97;;;2.28;;
64186;SDS011;50491;39.484;-8.540;2022-07-23T12:57:14;7.85;;;2.38;;
64186;SDS011;50491;39.484;-8.540;2022-07-23T13:06:36;7.40;;;2.47;;
64186;SDS011;50491;39.484;-8.540;2022-07-23T13:08:38;3.42;;;2.03;;
64186;SDS011;50491;39.484;-8.540;2022-07-23T13:10:40;8.65;;;2.60;;
64186;SDS011;50491;39.484;-8.540;2022-07-23T13:12:40;6.38;;;2.25;;
64186;SDS011;50491;39.484;-8.540;2022-07-23T13:15:25;3.35;;;1.80;;
64186;SDS011;50491;39.484;-8.540;2022-07-23T13:17:26;4.40;;;2.10;;
64186;SDS011;50491;39.484;-8.540;2022-07-23T13:19:45;3.80;;;1.70;;
64186;SDS011;50491;39.484;-8.540;2022-07-23T13:22:04;4.78;;;2.03;;
64186;SDS011;50491;39.484;-8.540;2022-07-23T13:24:05;5.90;;;2.17;;
64186;SDS011;50491;39.484;-8.540;2022-07-23T13:26:05;6.10;;;2.33;;
64186;SDS011;50491;39.484;-8.540;2022-07-23T13:28:06;3.58;;;2.00;;
64186;SDS011;50491;39.484;-8.540;2022-07-23T13:30:07;3.33;;;1.80;;
64186;SDS011;50491;39.484;-8.540;2022-07-23T13:32:09;5.63;;;1.95;;
64186;SDS011;50491;39.484;-8.540;2022-07-23T13:34:10;2.53;;;1.63;;
64186;SDS011;50491;39.484;-8.540;2022-07-23T13:36:11;3.88;;;1.92;;
64186;SDS011;50491;39.484;-8.540;2022-07-23T13:38:29;8.20;;;1.83;;
64186;SDS011;50491;39.484;-8.540;2022-07-23T13:40:50;2.83;;;1.90;;
64186;SDS011;50491;39.484;-8.540;2022-07-23T13:43:10;3.10;;;1.70;;
64186;SDS011;50491;39.484;-8.540;2022-07-23T13:45:11;4.03;;;1.70;;
64186;SDS011;50491;39.484;-8.540;2022-07-23T13:47:12;3.03;;;1.75;;
64186;SDS011;50491;39.484;-8.540;2022-07-23T13:49:13;2.78;;;1.77;;
64186;SDS011;50491;39.484;-8.540;2022-07-23T13:51:14;2.92;;;1.90;;
64186;SDS011;50491;39.484;-8.540;2022-07-23T13:53:17;3.40;;;1.58;;
64186;SDS011;50491;39.484;-8.540;2022-07-23T14:01:00;2.90;;;1.80;;
64186;SDS011;50491;39.484;-8.540;2022-07-23T14:03:01;4.40;;;2.03;;
64186;SDS011;50491;39.484;-8.540;2022-07-23T14:07:58;3.97;;;2.10;;
64186;SDS011;50491;39.484;-8.540;2022-07-23T14:10:23;2.67;;;1.60;;
64186;SDS011;50491;39.484;-8.540;2022-07-23T14:12:51;5.30;;;1.70;;
64186;SDS011;50491;39.484;-8.540;2022-07-23T14:15:11;3.95;;;1.90;;
64186;SDS011;50491;39.484;-8.540;2022-07-23T14:17:31;3.22;;;1.67;;
64186;SDS011;50491;39.484;-8.540;2022-07-23T14:19:51;4.55;;;1.90;;
64186;SDS011;50491;39.484;-8.540;2022-07-23T14:22:10;6.35;;;1.65;;
64186;SDS011;50491;39.484;-8.540;2022-07-23T14:24:11;5.63;;;1.88;;
64186;SDS011;50491;39.484;-8.540;2022-07-23T14:26:30;3.03;;;1.90;;
64186;SDS011;50491;39.484;-8.540;2022-07-23T14:28:49;5.55;;;1.98;;
64186;SDS011;50491;39.484;-8.540;2022-07-23T14:31:15;2.38;;;1.63;;
64186;SDS011;50491;39.484;-8.540;2022-07-23T14:33:17;2.13;;;1.48;;
64186;SDS011;50491;39.484;-8.540;2022-07-23T14:35:19;2.55;;;1.63;;
64186;SDS011;50491;39.484;-8.540;2022-07-23T14:37:20;2.78;;;1.40;;
64186;SDS011;50491;39.484;-8.540;2022-07-23T14:39:20;4.20;;;1.45;;
64186;SDS011;50491;39.484;-8.540;2022-07-23T14:41:21;2.17;;;1.33;;
64186;SDS011;50491;39.484;-8.540;2022-07-23T14:43:22;3.20;;;1.65;;
64186;SDS011;50491;39.484;-8.540;2022-07-23T14:45:23;5.65;;;1.70;;
64186;SDS011;50491;39.484;-8.540;2022-07-23T14:50:03;3.83;;;1.48;;
64186;SDS011;50491;39.484;-8.540;2022-07-23T14:54:55;4.05;;;1.70;;
64186;SDS011;50491;39.484;-8.540;2022-07-23T15:01:53;3.28;;;1.48;;
64186;SDS011;50491;39.484;-8.540;2022-07-23T15:07:21;1.65;;;1.55;;
64186;SDS011;50491;39.484;-8.540;2022-07-23T15:09:48;3.03;;;1.70;;
64186;SDS011;50491;39.484;-8.540;2022-07-23T15:12:13;4.38;;;1.40;;
64186;SDS011;50491;39.484;-8.540;2022-07-23T15:14:22;4.85;;;1.38;;
64186;SDS011;50491;39.484;-8.540;2022-07-23T15:16:23;3.83;;;1.30;;
64186;SDS011;50491;39.484;-8.540;2022-07-23T15:28:18;4.72;;;1.60;;
64186;SDS011;50491;39.484;-8.540;2022-07-23T15:30:38;3.53;;;1.35;;
64186;SDS011;50491;39.484;-8.540;2022-07-23T15:32:57;6.47;;;1.60;;
64186;SDS011;50491;39.484;-8.540;2022-07-23T15:35:16;2.42;;;1.40;;
64186;SDS011;50491;39.484;-8.540;2022-07-23T15:37:36;4.15;;;1.40;;
64186;SDS011;50491;39.484;-8.540;2022-07-23T15:39:37;5.32;;;1.70;;
64186;SDS011;50491;39.484;-8.540;2022-07-23T15:42:02;2.55;;;1.67;;
64186;SDS011;50491;39.484;-8.540;2022-07-23T15:44:03;3.55;;;1.38;;
64186;SDS011;50491;39.484;-8.540;2022-07-23T15:46:04;3.50;;;1.75;;
64186;SDS011;50491;39.484;-8.540;2022-07-23T15:48:06;3.38;;;1.63;;
64186;SDS011;50491;39.484;-8.540;2022-07-23T15:50:31;2.05;;;1.25;;
64186;SDS011;50491;39.484;-8.540;2022-07-23T15:52:57;5.45;;;1.52;;
64186;SDS011;50491;39.484;-8.540;2022-07-23T15:54:58;3.85;;;1.33;;
64186;SDS011;50491;39.484;-8.540;2022-07-23T15:56:58;1.42;;;1.15;;
64186;SDS011;50491;39.484;-8.540;2022-07-23T15:59:18;1.35;;;1.20;;
64186;SDS011;50491;39.484;-8.540;2022-07-23T16:01:31;4.55;;;1.40;;
64186;SDS011;50491;39.484;-8.540;2022-07-23T16:03:32;2.90;;;1.50;;
64186;SDS011;50491;39.484;-8.540;2022-07-23T16:05:34;3.72;;;1.27;;
64186;SDS011;50491;39.484;-8.540;2022-07-23T16:07:53;1.58;;;1.00;;
64186;SDS011;50491;39.484;-8.540;2022-07-23T16:09:54;1.75;;;1.63;;
64186;SDS011;50491;39.484;-8.540;2022-07-23T16:11:54;2.13;;;1.20;;
64186;SDS011;50491;39.484;-8.540;2022-07-23T16:13:55;2.88;;;1.30;;
64186;SDS011;50491;39.484;-8.540;2022-07-23T16:15:56;1.55;;;1.10;;
64186;SDS011;50491;39.484;-8.540;2022-07-23T16:17:57;4.78;;;1.40;;
64186;SDS011;50491;39.484;-8.540;2022-07-23T16:19:58;3.00;;;1.23;;